Terminal Aerodrome Forecast
Issued by NWS Memphis, TN

Home | Current Version | Previous Version | Text Only | Print | Product List | Glossary On
Versions: 1 2 3 4 5 6 7 8 9 10 11 12 13 14
582
FTUS44 KMEG 111130
TAFMKL
TAF
KMKL 111130Z 1112/1212 07007KT P6SM SKC
     FM111400 04010KT P6SM SCT050 BKN250
     FM120000 05006KT P6SM BKN150=

USA.gov is the U.S. government's official web portal to all federal, state and local government web resources and services.